sensor_id;sensor_type;location;lat;lon;timestamp;P1;durP1;ratioP1;P2;durP2;ratioP2
66437;SDS011;54537;47.972;11.662;2023-05-02T00:00:45;3.15;;;1.67;;
66437;SDS011;54537;47.972;11.662;2023-05-02T00:03:11;3.20;;;1.67;;
66437;SDS011;54537;47.972;11.662;2023-05-02T00:05:39;3.58;;;2.00;;
66437;SDS011;54537;47.972;11.662;2023-05-02T00:08:06;4.32;;;2.03;;
66437;SDS011;54537;47.972;11.662;2023-05-02T00:10:32;3.95;;;1.90;;
66437;SDS011;54537;47.972;11.662;2023-05-02T00:12:59;4.40;;;2.10;;
66437;SDS011;54537;47.972;11.662;2023-05-02T00:15:26;5.70;;;2.03;;
66437;SDS011;54537;47.972;11.662;2023-05-02T00:17:52;3.75;;;1.67;;
66437;SDS011;54537;47.972;11.662;2023-05-02T00:20:19;4.25;;;1.83;;
66437;SDS011;54537;47.972;11.662;2023-05-02T00:22:47;3.25;;;1.67;;
66437;SDS011;54537;47.972;11.662;2023-05-02T00:25:13;3.13;;;1.70;;
66437;SDS011;54537;47.972;11.662;2023-05-02T00:27:41;5.07;;;2.20;;
66437;SDS011;54537;47.972;11.662;2023-05-02T00:30:08;3.88;;;2.33;;
66437;SDS011;54537;47.972;11.662;2023-05-02T00:32:35;5.30;;;2.15;;
66437;SDS011;54537;47.972;11.662;2023-05-02T00:35:02;3.63;;;1.85;;
66437;SDS011;54537;47.972;11.662;2023-05-02T00:37:29;4.32;;;1.98;;
66437;SDS011;54537;47.972;11.662;2023-05-02T00:39:57;3.80;;;1.73;;
66437;SDS011;54537;47.972;11.662;2023-05-02T00:42:23;5.70;;;2.13;;
66437;SDS011;54537;47.972;11.662;2023-05-02T00:44:50;4.90;;;2.00;;
66437;SDS011;54537;47.972;11.662;2023-05-02T00:47:16;3.70;;;1.83;;
66437;SDS011;54537;47.972;11.662;2023-05-02T00:49:43;3.35;;;1.98;;
66437;SDS011;54537;47.972;11.662;2023-05-02T00:52:09;4.50;;;1.85;;
66437;SDS011;54537;47.972;11.662;2023-05-02T00:54:36;3.60;;;1.83;;
66437;SDS011;54537;47.972;11.662;2023-05-02T00:57:04;3.05;;;1.70;;
66437;SDS011;54537;47.972;11.662;2023-05-02T00:59:31;2.85;;;1.65;;
66437;SDS011;54537;47.972;11.662;2023-05-02T01:01:59;4.65;;;1.70;;
66437;SDS011;54537;47.972;11.662;2023-05-02T01:04:36;3.28;;;1.50;;
66437;SDS011;54537;47.972;11.662;2023-05-02T01:07:09;3.45;;;1.70;;
66437;SDS011;54537;47.972;11.662;2023-05-02T01:09:47;2.85;;;1.55;;
66437;SDS011;54537;47.972;11.662;2023-05-02T01:12:23;3.35;;;1.70;;
66437;SDS011;54537;47.972;11.662;2023-05-02T01:14:53;4.32;;;2.03;;
66437;SDS011;54537;47.972;11.662;2023-05-02T01:17:22;3.38;;;1.90;;
66437;SDS011;54537;47.972;11.662;2023-05-02T01:19:52;3.67;;;1.85;;
66437;SDS011;54537;47.972;11.662;2023-05-02T01:22:21;2.92;;;1.83;;
66437;SDS011;54537;47.972;11.662;2023-05-02T01:24:48;3.08;;;2.00;;
66437;SDS011;54537;47.972;11.662;2023-05-02T01:29:51;4.38;;;1.45;;
66437;SDS011;54537;47.972;11.662;2023-05-02T01:32:18;3.17;;;1.90;;
66437;SDS011;54537;47.972;11.662;2023-05-02T01:34:46;3.80;;;1.70;;
66437;SDS011;54537;47.972;11.662;2023-05-02T01:37:13;4.93;;;1.92;;
66437;SDS011;54537;47.972;11.662;2023-05-02T01:39:40;2.55;;;1.67;;
66437;SDS011;54537;47.972;11.662;2023-05-02T01:42:07;2.88;;;1.58;;
66437;SDS011;54537;47.972;11.662;2023-05-02T01:44:34;3.88;;;2.00;;
66437;SDS011;54537;47.972;11.662;2023-05-02T01:47:03;4.82;;;2.25;;
66437;SDS011;54537;47.972;11.662;2023-05-02T01:49:31;3.85;;;2.20;;
66437;SDS011;54537;47.972;11.662;2023-05-02T01:51:59;4.35;;;2.10;;
66437;SDS011;54537;47.972;11.662;2023-05-02T01:54:28;2.97;;;1.70;;
66437;SDS011;54537;47.972;11.662;2023-05-02T01:56:55;3.53;;;1.90;;
66437;SDS011;54537;47.972;11.662;2023-05-02T01:59:23;4.05;;;2.10;;
66437;SDS011;54537;47.972;11.662;2023-05-02T02:01:50;3.97;;;2.13;;
66437;SDS011;54537;47.972;11.662;2023-05-02T02:04:18;3.00;;;1.70;;
66437;SDS011;54537;47.972;11.662;2023-05-02T02:06:45;3.47;;;1.73;;
66437;SDS011;54537;47.972;11.662;2023-05-02T02:09:13;4.43;;;2.00;;
66437;SDS011;54537;47.972;11.662;2023-05-02T02:11:42;3.58;;;1.80;;
66437;SDS011;54537;47.972;11.662;2023-05-02T02:14:13;3.35;;;2.00;;
66437;SDS011;54537;47.972;11.662;2023-05-02T02:16:43;3.60;;;1.77;;
66437;SDS011;54537;47.972;11.662;2023-05-02T02:19:11;5.60;;;2.00;;
66437;SDS011;54537;47.972;11.662;2023-05-02T02:21:40;3.42;;;1.90;;
66437;SDS011;54537;47.972;11.662;2023-05-02T02:24:08;3.42;;;1.88;;
66437;SDS011;54537;47.972;11.662;2023-05-02T02:26:35;7.47;;;2.30;;
66437;SDS011;54537;47.972;11.662;2023-05-02T02:29:02;4.45;;;2.13;;
66437;SDS011;54537;47.972;11.662;2023-05-02T02:31:29;3.53;;;2.00;;
66437;SDS011;54537;47.972;11.662;2023-05-02T02:33:56;4.00;;;2.00;;
66437;SDS011;54537;47.972;11.662;2023-05-02T02:36:23;4.85;;;2.00;;
66437;SDS011;54537;47.972;11.662;2023-05-02T02:38:59;3.60;;;1.83;;
66437;SDS011;54537;47.972;11.662;2023-05-02T02:41:31;4.30;;;2.00;;
66437;SDS011;54537;47.972;11.662;2023-05-02T02:43:59;3.83;;;2.00;;
66437;SDS011;54537;47.972;11.662;2023-05-02T02:46:33;3.50;;;1.70;;
66437;SDS011;54537;47.972;11.662;2023-05-02T02:49:11;3.55;;;2.03;;
66437;SDS011;54537;47.972;11.662;2023-05-02T02:51:44;3.80;;;2.03;;
66437;SDS011;54537;47.972;11.662;2023-05-02T02:54:17;3.05;;;1.90;;
66437;SDS011;54537;47.972;11.662;2023-05-02T02:56:48;2.83;;;1.73;;
66437;SDS011;54537;47.972;11.662;2023-05-02T02:59:19;2.65;;;1.77;;
66437;SDS011;54537;47.972;11.662;2023-05-02T03:01:55;2.70;;;1.65;;
66437;SDS011;54537;47.972;11.662;2023-05-02T03:04:26;2.72;;;1.50;;
66437;SDS011;54537;47.972;11.662;2023-05-02T03:06:55;3.05;;;1.88;;
66437;SDS011;54537;47.972;11.662;2023-05-02T03:09:23;3.15;;;1.90;;
66437;SDS011;54537;47.972;11.662;2023-05-02T03:11:51;2.90;;;1.70;;
66437;SDS011;54537;47.972;11.662;2023-05-02T03:14:17;2.67;;;1.40;;
66437;SDS011;54537;47.972;11.662;2023-05-02T03:16:44;3.13;;;1.83;;
66437;SDS011;54537;47.972;11.662;2023-05-02T03:19:11;3.10;;;2.08;;
66437;SDS011;54537;47.972;11.662;2023-05-02T03:21:37;3.22;;;1.80;;
66437;SDS011;54537;47.972;11.662;2023-05-02T03:24:04;2.42;;;1.60;;
66437;SDS011;54537;47.972;11.662;2023-05-02T03:26:32;3.55;;;1.73;;
66437;SDS011;54537;47.972;11.662;2023-05-02T03:28:58;2.70;;;1.58;;
66437;SDS011;54537;47.972;11.662;2023-05-02T03:31:25;3.00;;;1.55;;
66437;SDS011;54537;47.972;11.662;2023-05-02T03:33:51;3.83;;;2.10;;
66437;SDS011;54537;47.972;11.662;2023-05-02T03:36:18;3.97;;;1.67;;
66437;SDS011;54537;47.972;11.662;2023-05-02T03:38:44;2.88;;;1.60;;
66437;SDS011;54537;47.972;11.662;2023-05-02T03:41:11;2.63;;;1.38;;
66437;SDS011;54537;47.972;11.662;2023-05-02T03:43:39;4.20;;;2.10;;
66437;SDS011;54537;47.972;11.662;2023-05-02T03:46:06;3.47;;;1.50;;
66437;SDS011;54537;47.972;11.662;2023-05-02T03:48:34;2.40;;;1.52;;
66437;SDS011;54537;47.972;11.662;2023-05-02T03:51:01;2.97;;;1.80;;
66437;SDS011;54537;47.972;11.662;2023-05-02T03:53:28;3.33;;;1.90;;
66437;SDS011;54537;47.972;11.662;2023-05-02T03:55:54;2.40;;;1.52;;
66437;SDS011;54537;47.972;11.662;2023-05-02T03:58:21;4.00;;;2.30;;
66437;SDS011;54537;47.972;11.662;2023-05-02T04:00:50;3.40;;;1.90;;
66437;SDS011;54537;47.972;11.662;2023-05-02T04:03:17;3.33;;;1.50;;
66437;SDS011;54537;47.972;11.662;2023-05-02T04:05:44;2.63;;;1.70;;
66437;SDS011;54537;47.972;11.662;2023-05-02T04:08:10;2.88;;;1.75;;
66437;SDS011;54537;47.972;11.662;2023-05-02T04:10:37;3.85;;;1.67;;
66437;SDS011;54537;47.972;11.662;2023-05-02T04:13:04;3.63;;;2.00;;
66437;SDS011;54537;47.972;11.662;2023-05-02T04:15:30;3.80;;;2.00;;
66437;SDS011;54537;47.972;11.662;2023-05-02T04:17:58;3.67;;;2.10;;
66437;SDS011;54537;47.972;11.662;2023-05-02T04:20:24;3.15;;;1.80;;
66437;SDS011;54537;47.972;11.662;2023-05-02T04:22:51;3.35;;;1.83;;
66437;SDS011;54537;47.972;11.662;2023-05-02T04:25:18;3.83;;;1.80;;
66437;SDS011;54537;47.972;11.662;2023-05-02T04:27:44;4.20;;;1.80;;
66437;SDS011;54537;47.972;11.662;2023-05-02T04:30:11;3.72;;;1.90;;
66437;SDS011;54537;47.972;11.662;2023-05-02T04:32:38;2.80;;;1.52;;
66437;SDS011;54537;47.972;11.662;2023-05-02T04:35:07;3.38;;;1.77;;
66437;SDS011;54537;47.972;11.662;2023-05-02T04:37:34;3.58;;;2.00;;
66437;SDS011;54537;47.972;11.662;2023-05-02T04:40:01;3.35;;;1.90;;
66437;SDS011;54537;47.972;11.662;2023-05-02T04:42:28;6.35;;;2.10;;
66437;SDS011;54537;47.972;11.662;2023-05-02T04:44:54;3.60;;;1.70;;
66437;SDS011;54537;47.972;11.662;2023-05-02T04:47:21;5.05;;;2.10;;
66437;SDS011;54537;47.972;11.662;2023-05-02T04:49:47;3.92;;;1.92;;
66437;SDS011;54537;47.972;11.662;2023-05-02T04:52:15;3.45;;;2.00;;
66437;SDS011;54537;47.972;11.662;2023-05-02T04:54:42;3.50;;;2.00;;
66437;SDS011;54537;47.972;11.662;2023-05-02T04:57:09;3.92;;;1.80;;
66437;SDS011;54537;47.972;11.662;2023-05-02T04:59:35;4.55;;;2.00;;
66437;SDS011;54537;47.972;11.662;2023-05-02T05:02:02;5.38;;;1.77;;
66437;SDS011;54537;47.972;11.662;2023-05-02T05:04:28;3.20;;;1.63;;
66437;SDS011;54537;47.972;11.662;2023-05-02T05:06:55;3.55;;;1.90;;
66437;SDS011;54537;47.972;11.662;2023-05-02T05:09:23;4.05;;;1.95;;
66437;SDS011;54537;47.972;11.662;2023-05-02T05:11:49;10.63;;;2.63;;
66437;SDS011;54537;47.972;11.662;2023-05-02T05:14:16;8.40;;;2.60;;
66437;SDS011;54537;47.972;11.662;2023-05-02T05:16:42;3.13;;;1.90;;
66437;SDS011;54537;47.972;11.662;2023-05-02T05:19:09;3.45;;;1.60;;
66437;SDS011;54537;47.972;11.662;2023-05-02T05:21:35;3.55;;;1.73;;
66437;SDS011;54537;47.972;11.662;2023-05-02T05:24:02;2.72;;;1.52;;
66437;SDS011;54537;47.972;11.662;2023-05-02T05:26:30;4.63;;;1.85;;
66437;SDS011;54537;47.972;11.662;2023-05-02T05:28:57;5.70;;;1.80;;
66437;SDS011;54537;47.972;11.662;2023-05-02T05:31:23;3.72;;;1.90;;
66437;SDS011;54537;47.972;11.662;2023-05-02T05:33:50;4.38;;;2.03;;
66437;SDS011;54537;47.972;11.662;2023-05-02T05:36:16;3.75;;;1.85;;
66437;SDS011;54537;47.972;11.662;2023-05-02T05:38:43;5.07;;;1.58;;
66437;SDS011;54537;47.972;11.662;2023-05-02T05:41:10;2.22;;;1.60;;
66437;SDS011;54537;47.972;11.662;2023-05-02T05:43:38;4.80;;;2.60;;
66437;SDS011;54537;47.972;11.662;2023-05-02T05:46:04;3.75;;;2.10;;
66437;SDS011;54537;47.972;11.662;2023-05-02T05:48:31;3.83;;;2.28;;
66437;SDS011;54537;47.972;11.662;2023-05-02T05:50:57;4.35;;;2.20;;
66437;SDS011;54537;47.972;11.662;2023-05-02T05:53:23;4.53;;;2.30;;
66437;SDS011;54537;47.972;11.662;2023-05-02T05:55:50;7.25;;;2.42;;
66437;SDS011;54537;47.972;11.662;2023-05-02T05:58:17;4.32;;;2.40;;
66437;SDS011;54537;47.972;11.662;2023-05-02T06:00:44;5.60;;;2.13;;
66437;SDS011;54537;47.972;11.662;2023-05-02T06:03:11;3.28;;;2.03;;
66437;SDS011;54537;47.972;11.662;2023-05-02T06:05:37;4.55;;;2.20;;
66437;SDS011;54537;47.972;11.662;2023-05-02T06:08:04;3.38;;;2.00;;
66437;SDS011;54537;47.972;11.662;2023-05-02T06:10:31;5.05;;;2.50;;
66437;SDS011;54537;47.972;11.662;2023-05-02T06:12:57;3.90;;;2.10;;
66437;SDS011;54537;47.972;11.662;2023-05-02T06:15:24;4.72;;;2.50;;
66437;SDS011;54537;47.972;11.662;2023-05-02T06:17:52;4.88;;;2.25;;
66437;SDS011;54537;47.972;11.662;2023-05-02T06:20:18;4.40;;;2.40;;
66437;SDS011;54537;47.972;11.662;2023-05-02T06:22:45;3.88;;;2.08;;
66437;SDS011;54537;47.972;11.662;2023-05-02T06:25:11;4.32;;;2.30;;
66437;SDS011;54537;47.972;11.662;2023-05-02T06:27:38;4.90;;;1.92;;
66437;SDS011;54537;47.972;11.662;2023-05-02T06:30:05;4.18;;;2.40;;
66437;SDS011;54537;47.972;11.662;2023-05-02T06:32:32;3.67;;;2.15;;
66437;SDS011;54537;47.972;11.662;2023-05-02T06:35:00;5.28;;;2.60;;
66437;SDS011;54537;47.972;11.662;2023-05-02T06:37:26;3.75;;;2.03;;
66437;SDS011;54537;47.972;11.662;2023-05-02T06:39:53;6.25;;;2.63;;
66437;SDS011;54537;47.972;11.662;2023-05-02T06:42:20;3.58;;;2.17;;
66437;SDS011;54537;47.972;11.662;2023-05-02T06:44:46;5.18;;;2.00;;
66437;SDS011;54537;47.972;11.662;2023-05-02T06:47:13;3.92;;;2.25;;
66437;SDS011;54537;47.972;11.662;2023-05-02T06:49:39;4.90;;;2.33;;
66437;SDS011;54537;47.972;11.662;2023-05-02T06:52:07;4.03;;;2.00;;
66437;SDS011;54537;47.972;11.662;2023-05-02T06:54:34;3.83;;;2.15;;
66437;SDS011;54537;47.972;11.662;2023-05-02T06:57:02;3.88;;;2.30;;
66437;SDS011;54537;47.972;11.662;2023-05-02T06:59:29;3.97;;;2.30;;
66437;SDS011;54537;47.972;11.662;2023-05-02T07:01:56;5.13;;;2.42;;
66437;SDS011;54537;47.972;11.662;2023-05-02T07:04:22;4.00;;;2.20;;
66437;SDS011;54537;47.972;11.662;2023-05-02T07:06:49;7.28;;;2.45;;
66437;SDS011;54537;47.972;11.662;2023-05-02T07:09:17;4.72;;;2.40;;
66437;SDS011;54537;47.972;11.662;2023-05-02T07:11:43;8.73;;;2.90;;
66437;SDS011;54537;47.972;11.662;2023-05-02T07:14:10;6.88;;;2.80;;
66437;SDS011;54537;47.972;11.662;2023-05-02T07:16:36;4.45;;;2.30;;
66437;SDS011;54537;47.972;11.662;2023-05-02T07:19:03;5.97;;;2.40;;
66437;SDS011;54537;47.972;11.662;2023-05-02T07:21:30;4.30;;;2.22;;
66437;SDS011;54537;47.972;11.662;2023-05-02T07:23:57;6.68;;;2.40;;
66437;SDS011;54537;47.972;11.662;2023-05-02T07:26:26;5.50;;;2.95;;
66437;SDS011;54537;47.972;11.662;2023-05-02T07:28:53;4.97;;;2.78;;
66437;SDS011;54537;47.972;11.662;2023-05-02T07:31:19;6.20;;;2.63;;
66437;SDS011;54537;47.972;11.662;2023-05-02T07:33:46;7.95;;;3.25;;
66437;SDS011;54537;47.972;11.662;2023-05-02T07:36:12;5.03;;;2.90;;
66437;SDS011;54537;47.972;11.662;2023-05-02T07:38:39;4.32;;;2.30;;
66437;SDS011;54537;47.972;11.662;2023-05-02T07:41:05;4.60;;;2.60;;
66437;SDS011;54537;47.972;11.662;2023-05-02T07:43:33;6.13;;;2.83;;
66437;SDS011;54537;47.972;11.662;2023-05-02T07:46:02;5.28;;;2.58;;
66437;SDS011;54537;47.972;11.662;2023-05-02T07:48:29;5.28;;;2.47;;
66437;SDS011;54537;47.972;11.662;2023-05-02T07:50:57;5.70;;;2.40;;
66437;SDS011;54537;47.972;11.662;2023-05-02T07:53:31;5.88;;;3.53;;
66437;SDS011;54537;47.972;11.662;2023-05-02T07:55:57;6.20;;;3.40;;
66437;SDS011;54537;47.972;11.662;2023-05-02T07:58:24;5.05;;;2.60;;
66437;SDS011;54537;47.972;11.662;2023-05-02T08:00:52;5.13;;;2.58;;
66437;SDS011;54537;47.972;11.662;2023-05-02T08:03:18;5.70;;;3.47;;
66437;SDS011;54537;47.972;11.662;2023-05-02T08:05:45;5.45;;;2.83;;
66437;SDS011;54537;47.972;11.662;2023-05-02T08:08:11;5.72;;;3.30;;
66437;SDS011;54537;47.972;11.662;2023-05-02T08:10:38;8.27;;;3.17;;
66437;SDS011;54537;47.972;11.662;2023-05-02T08:13:04;5.93;;;3.05;;
66437;SDS011;54537;47.972;11.662;2023-05-02T08:15:31;8.23;;;3.00;;
66437;SDS011;54537;47.972;11.662;2023-05-02T08:17:59;6.53;;;2.80;;
66437;SDS011;54537;47.972;11.662;2023-05-02T08:20:25;6.07;;;3.70;;
66437;SDS011;54537;47.972;11.662;2023-05-02T08:22:52;7.43;;;3.85;;
66437;SDS011;54537;47.972;11.662;2023-05-02T08:25:18;6.25;;;3.50;;
66437;SDS011;54537;47.972;11.662;2023-05-02T08:27:45;5.93;;;3.28;;
66437;SDS011;54537;47.972;11.662;2023-05-02T08:30:12;6.60;;;3.58;;
66437;SDS011;54537;47.972;11.662;2023-05-02T08:32:38;7.00;;;3.85;;
66437;SDS011;54537;47.972;11.662;2023-05-02T08:35:07;6.75;;;3.88;;
66437;SDS011;54537;47.972;11.662;2023-05-02T08:37:34;6.38;;;3.60;;
66437;SDS011;54537;47.972;11.662;2023-05-02T08:40:01;6.65;;;3.72;;
66437;SDS011;54537;47.972;11.662;2023-05-02T08:42:27;6.75;;;3.90;;
66437;SDS011;54537;47.972;11.662;2023-05-02T08:44:54;5.72;;;3.10;;
66437;SDS011;54537;47.972;11.662;2023-05-02T08:47:20;7.88;;;3.85;;
66437;SDS011;54537;47.972;11.662;2023-05-02T08:49:48;9.75;;;3.55;;
66437;SDS011;54537;47.972;11.662;2023-05-02T08:52:16;8.23;;;3.70;;
66437;SDS011;54537;47.972;11.662;2023-05-02T08:54:45;7.20;;;3.72;;
66437;SDS011;54537;47.972;11.662;2023-05-02T08:57:11;6.53;;;3.20;;
66437;SDS011;54537;47.972;11.662;2023-05-02T08:59:38;5.93;;;3.42;;
66437;SDS011;54537;47.972;11.662;2023-05-02T09:02:07;6.18;;;3.65;;
66437;SDS011;54537;47.972;11.662;2023-05-02T09:04:39;8.07;;;4.10;;
66437;SDS011;54537;47.972;11.662;2023-05-02T09:07:06;7.20;;;3.80;;
66437;SDS011;54537;47.972;11.662;2023-05-02T09:09:34;6.45;;;3.65;;
66437;SDS011;54537;47.972;11.662;2023-05-02T09:12:01;7.95;;;4.03;;
66437;SDS011;54537;47.972;11.662;2023-05-02T09:14:28;8.32;;;4.10;;
66437;SDS011;54537;47.972;11.662;2023-05-02T09:16:57;11.95;;;4.25;;
66437;SDS011;54537;47.972;11.662;2023-05-02T09:19:24;6.57;;;3.75;;
66437;SDS011;54537;47.972;11.662;2023-05-02T09:21:51;9.75;;;4.40;;
66437;SDS011;54537;47.972;11.662;2023-05-02T09:24:18;7.20;;;4.50;;
66437;SDS011;54537;47.972;11.662;2023-05-02T09:26:57;6.60;;;3.30;;
66437;SDS011;54537;47.972;11.662;2023-05-02T09:29:25;7.03;;;3.72;;
66437;SDS011;54537;47.972;11.662;2023-05-02T09:31:53;8.65;;;3.92;;
66437;SDS011;54537;47.972;11.662;2023-05-02T09:34:19;7.45;;;4.00;;
66437;SDS011;54537;47.972;11.662;2023-05-02T09:36:46;7.43;;;3.60;;
66437;SDS011;54537;47.972;11.662;2023-05-02T09:39:16;8.07;;;3.63;;
66437;SDS011;54537;47.972;11.662;2023-05-02T09:41:44;6.68;;;3.38;;
66437;SDS011;54537;47.972;11.662;2023-05-02T09:44:13;6.65;;;4.10;;
66437;SDS011;54537;47.972;11.662;2023-05-02T09:46:42;8.20;;;3.92;;
66437;SDS011;54537;47.972;11.662;2023-05-02T09:49:10;5.63;;;3.47;;
66437;SDS011;54537;47.972;11.662;2023-05-02T09:51:38;7.20;;;3.80;;
66437;SDS011;54537;47.972;11.662;2023-05-02T09:54:05;7.95;;;4.00;;
66437;SDS011;54537;47.972;11.662;2023-05-02T09:56:33;8.88;;;4.47;;
66437;SDS011;54537;47.972;11.662;2023-05-02T09:59:18;8.15;;;4.25;;
66437;SDS011;54537;47.972;11.662;2023-05-02T10:01:44;7.95;;;5.03;;
66437;SDS011;54537;47.972;11.662;2023-05-02T10:04:11;9.57;;;4.43;;
66437;SDS011;54537;47.972;11.662;2023-05-02T10:06:40;7.40;;;4.70;;
66437;SDS011;54537;47.972;11.662;2023-05-02T10:09:08;10.05;;;5.07;;
66437;SDS011;54537;47.972;11.662;2023-05-02T10:11:35;10.40;;;4.70;;
66437;SDS011;54537;47.972;11.662;2023-05-02T10:14:02;8.07;;;4.78;;
66437;SDS011;54537;47.972;11.662;2023-05-02T10:16:31;11.95;;;5.40;;
66437;SDS011;54537;47.972;11.662;2023-05-02T10:19:01;8.07;;;4.50;;
66437;SDS011;54537;47.972;11.662;2023-05-02T10:21:28;8.23;;;4.47;;
66437;SDS011;54537;47.972;11.662;2023-05-02T10:23:56;7.95;;;4.03;;
66437;SDS011;54537;47.972;11.662;2023-05-02T10:26:23;8.02;;;4.82;;
66437;SDS011;54537;47.972;11.662;2023-05-02T10:28:49;8.48;;;4.28;;
66437;SDS011;54537;47.972;11.662;2023-05-02T10:31:16;6.32;;;3.97;;
66437;SDS011;54537;47.972;11.662;2023-05-02T10:33:45;9.45;;;4.97;;
66437;SDS011;54537;47.972;11.662;2023-05-02T10:36:12;8.23;;;4.32;;
66437;SDS011;54537;47.972;11.662;2023-05-02T10:38:38;7.28;;;3.90;;
66437;SDS011;54537;47.972;11.662;2023-05-02T10:41:07;7.32;;;4.80;;
66437;SDS011;54537;47.972;11.662;2023-05-02T10:43:35;8.85;;;4.53;;
66437;SDS011;54537;47.972;11.662;2023-05-02T10:46:03;7.90;;;4.80;;
66437;SDS011;54537;47.972;11.662;2023-05-02T10:49:00;8.25;;;4.57;;
66437;SDS011;54537;47.972;11.662;2023-05-02T10:51:28;10.95;;;5.30;;
66437;SDS011;54537;47.972;11.662;2023-05-02T10:54:17;8.35;;;5.65;;
66437;SDS011;54537;47.972;11.662;2023-05-02T10:57:01;10.38;;;5.03;;
66437;SDS011;54537;47.972;11.662;2023-05-02T10:59:30;9.93;;;5.00;;
66437;SDS011;54537;47.972;11.662;2023-05-02T11:01:57;8.68;;;5.10;;
66437;SDS011;54537;47.972;11.662;2023-05-02T11:04:26;11.60;;;5.97;;
66437;SDS011;54537;47.972;11.662;2023-05-02T11:07:26;9.93;;;5.70;;
66437;SDS011;54537;47.972;11.662;2023-05-02T11:09:59;14.73;;;5.50;;
66437;SDS011;54537;47.972;11.662;2023-05-02T11:12:54;9.88;;;5.20;;
66437;SDS011;54537;47.972;11.662;2023-05-02T11:18:21;7.47;;;4.97;;
66437;SDS011;54537;47.972;11.662;2023-05-02T11:20:49;8.98;;;4.65;;
66437;SDS011;54537;47.972;11.662;2023-05-02T11:23:18;8.55;;;4.88;;
66437;SDS011;54537;47.972;11.662;2023-05-02T11:25:50;8.15;;;4.93;;
66437;SDS011;54537;47.972;11.662;2023-05-02T11:34:27;10.85;;;4.63;;
66437;SDS011;54537;47.972;11.662;2023-05-02T11:36:55;10.10;;;5.88;;
66437;SDS011;54537;47.972;11.662;2023-05-02T11:39:22;7.82;;;4.80;;
66437;SDS011;54537;47.972;11.662;2023-05-02T11:41:48;8.82;;;4.32;;
66437;SDS011;54537;47.972;11.662;2023-05-02T11:44:16;8.02;;;4.63;;
66437;SDS011;54537;47.972;11.662;2023-05-02T11:46:42;9.13;;;4.68;;
66437;SDS011;54537;47.972;11.662;2023-05-02T11:49:09;7.88;;;4.30;;
66437;SDS011;54537;47.972;11.662;2023-05-02T11:51:37;10.25;;;5.13;;
66437;SDS011;54537;47.972;11.662;2023-05-02T11:54:05;7.38;;;4.53;;
66437;SDS011;54537;47.972;11.662;2023-05-02T11:56:33;7.45;;;4.30;;
66437;SDS011;54537;47.972;11.662;2023-05-02T11:58:59;7.65;;;4.10;;
66437;SDS011;54537;47.972;11.662;2023-05-02T12:01:27;7.93;;;3.38;;
66437;SDS011;54537;47.972;11.662;2023-05-02T12:04:00;6.38;;;3.00;;
66437;SDS011;54537;47.972;11.662;2023-05-02T12:06:28;7.68;;;2.92;;
66437;SDS011;54537;47.972;11.662;2023-05-02T12:09:06;6.03;;;3.20;;
66437;SDS011;54537;47.972;11.662;2023-05-02T12:11:33;7.22;;;3.60;;
66437;SDS011;54537;47.972;11.662;2023-05-02T12:14:00;10.80;;;4.40;;
66437;SDS011;54537;47.972;11.662;2023-05-02T12:16:27;8.00;;;3.60;;
66437;SDS011;54537;47.972;11.662;2023-05-02T12:18:53;9.80;;;3.83;;
66437;SDS011;54537;47.972;11.662;2023-05-02T12:21:23;9.25;;;3.88;;
66437;SDS011;54537;47.972;11.662;2023-05-02T12:23:50;5.90;;;3.50;;
66437;SDS011;54537;47.972;11.662;2023-05-02T12:26:18;6.82;;;3.80;;
66437;SDS011;54537;47.972;11.662;2023-05-02T12:28:49;6.95;;;3.78;;
66437;SDS011;54537;47.972;11.662;2023-05-02T12:31:16;9.40;;;4.82;;
66437;SDS011;54537;47.972;11.662;2023-05-02T12:33:44;22.15;;;6.03;;
66437;SDS011;54537;47.972;11.662;2023-05-02T12:36:12;13.65;;;5.75;;
66437;SDS011;54537;47.972;11.662;2023-05-02T12:38:38;7.88;;;4.55;;
66437;SDS011;54537;47.972;11.662;2023-05-02T12:41:05;10.35;;;5.30;;
66437;SDS011;54537;47.972;11.662;2023-05-02T12:43:43;10.02;;;4.47;;
66437;SDS011;54537;47.972;11.662;2023-05-02T12:46:11;8.10;;;4.30;;
66437;SDS011;54537;47.972;11.662;2023-05-02T12:48:37;5.40;;;2.80;;
66437;SDS011;54537;47.972;11.662;2023-05-02T12:51:04;6.70;;;3.08;;
66437;SDS011;54537;47.972;11.662;2023-05-02T12:53:38;5.40;;;3.13;;
66437;SDS011;54537;47.972;11.662;2023-05-02T12:56:05;5.15;;;2.85;;
66437;SDS011;54537;47.972;11.662;2023-05-02T12:58:38;7.53;;;3.97;;
66437;SDS011;54537;47.972;11.662;2023-05-02T13:01:07;9.07;;;3.70;;
66437;SDS011;54537;47.972;11.662;2023-05-02T13:03:34;7.85;;;3.75;;
66437;SDS011;54537;47.972;11.662;2023-05-02T13:06:01;6.93;;;3.55;;
66437;SDS011;54537;47.972;11.662;2023-05-02T13:08:27;5.63;;;3.42;;
66437;SDS011;54537;47.972;11.662;2023-05-02T13:10:54;6.85;;;3.92;;
66437;SDS011;54537;47.972;11.662;2023-05-02T13:13:20;7.13;;;3.55;;
66437;SDS011;54537;47.972;11.662;2023-05-02T13:15:47;8.52;;;3.95;;
66437;SDS011;54537;47.972;11.662;2023-05-02T13:18:15;8.73;;;4.65;;
66437;SDS011;54537;47.972;11.662;2023-05-02T13:20:41;7.45;;;4.22;;
66437;SDS011;54537;47.972;11.662;2023-05-02T13:23:07;6.97;;;3.97;;
66437;SDS011;54537;47.972;11.662;2023-05-02T13:25:34;7.45;;;3.83;;
66437;SDS011;54537;47.972;11.662;2023-05-02T13:28:00;6.65;;;3.50;;
66437;SDS011;54537;47.972;11.662;2023-05-02T13:30:27;6.30;;;3.15;;
66437;SDS011;54537;47.972;11.662;2023-05-02T13:32:53;6.70;;;3.50;;
66437;SDS011;54537;47.972;11.662;2023-05-02T13:35:23;6.25;;;3.40;;
66437;SDS011;54537;47.972;11.662;2023-05-02T13:37:50;5.40;;;3.45;;
66437;SDS011;54537;47.972;11.662;2023-05-02T13:40:17;5.43;;;3.22;;
66437;SDS011;54537;47.972;11.662;2023-05-02T13:42:43;5.55;;;3.40;;
66437;SDS011;54537;47.972;11.662;2023-05-02T13:45:10;6.95;;;3.50;;
66437;SDS011;54537;47.972;11.662;2023-05-02T13:47:36;7.13;;;4.28;;
66437;SDS011;54537;47.972;11.662;2023-05-02T13:50:03;5.25;;;3.30;;
66437;SDS011;54537;47.972;11.662;2023-05-02T13:52:31;5.85;;;3.33;;
66437;SDS011;54537;47.972;11.662;2023-05-02T13:54:57;5.97;;;3.47;;
66437;SDS011;54537;47.972;11.662;2023-05-02T13:57:24;5.72;;;3.10;;
66437;SDS011;54537;47.972;11.662;2023-05-02T13:59:50;4.85;;;3.22;;
66437;SDS011;54537;47.972;11.662;2023-05-02T14:02:17;5.97;;;3.40;;
66437;SDS011;54537;47.972;11.662;2023-05-02T14:04:44;6.18;;;3.55;;
66437;SDS011;54537;47.972;11.662;2023-05-02T14:07:10;5.47;;;3.25;;
66437;SDS011;54537;47.972;11.662;2023-05-02T14:09:38;6.88;;;3.05;;
66437;SDS011;54537;47.972;11.662;2023-05-02T14:12:04;5.22;;;2.80;;
66437;SDS011;54537;47.972;11.662;2023-05-02T14:14:31;5.57;;;2.60;;
66437;SDS011;54537;47.972;11.662;2023-05-02T14:17:00;7.35;;;3.45;;
66437;SDS011;54537;47.972;11.662;2023-05-02T14:19:27;5.93;;;2.97;;
66437;SDS011;54537;47.972;11.662;2023-05-02T14:21:53;5.25;;;2.70;;
66437;SDS011;54537;47.972;11.662;2023-05-02T14:24:19;6.15;;;3.08;;
66437;SDS011;54537;47.972;11.662;2023-05-02T14:26:47;4.03;;;2.30;;
66437;SDS011;54537;47.972;11.662;2023-05-02T14:29:14;6.38;;;3.40;;
66437;SDS011;54537;47.972;11.662;2023-05-02T14:31:42;6.65;;;2.97;;
66437;SDS011;54537;47.972;11.662;2023-05-02T14:34:10;3.65;;;2.10;;
66437;SDS011;54537;47.972;11.662;2023-05-02T14:36:37;7.97;;;2.63;;
66437;SDS011;54537;47.972;11.662;2023-05-02T14:39:04;4.93;;;2.70;;
66437;SDS011;54537;47.972;11.662;2023-05-02T14:41:30;4.90;;;2.90;;
66437;SDS011;54537;47.972;11.662;2023-05-02T14:43:58;4.68;;;2.83;;
66437;SDS011;54537;47.972;11.662;2023-05-02T14:46:24;5.10;;;2.55;;
66437;SDS011;54537;47.972;11.662;2023-05-02T14:48:51;6.95;;;2.65;;